Time;durP1;ratioP1;P1;durP2;ratioP2;P2;SDS_P1;SDS_P2;PMS_P1;PMS_P2;Temp;Humidity;BMP_temperature;BMP_pressure;BME280_temperature;BME280_humidity;BME280_pressure;Samples;Min_cycle;Max_cycle;Signal;HPM_P1;HPM_P2
2023/11/10 00:02:25;;;;;;;7.95;6.50;;;;;;;;;;4933281;29;20043;-77
2023/11/10 00:04:51;;;;;;;8.73;6.78;;;;;;;;;;4931992;29;20036;-78
2023/11/10 00:07:17;;;;;;;9.73;6.75;;;;;;;;;;4932885;29;20036;-77
2023/11/10 00:09:45;;;;;;;6.57;5.97;;;;;;;;;;4933378;29;20589;-77
2023/11/10 00:12:14;;;;;;;8.20;7.20;;;;;;;;;;4931395;29;20054;-77
2023/11/10 00:14:40;;;;;;;8.93;6.18;;;;;;;;;;4931425;29;20122;-76
2023/11/10 00:17:09;;;;;;;6.28;5.78;;;;;;;;;;4931741;29;20062;-77
2023/11/10 00:19:39;;;;;;;15.57;6.50;;;;;;;;;;4932137;29;20036;-78
2023/11/10 00:22:05;;;;;;;7.03;6.43;;;;;;;;;;4900121;29;20542;-77
2023/11/10 00:24:33;;;;;;;9.90;6.63;;;;;;;;;;4932979;29;20088;-77
2023/11/10 00:27:00;;;;;;;7.85;7.15;;;;;;;;;;4931534;29;20507;-78
2023/11/10 00:29:26;;;;;;;8.68;7.95;;;;;;;;;;4915929;29;20122;-77
2023/11/10 00:31:53;;;;;;;11.18;9.52;;;;;;;;;;4915437;29;20129;-79
2023/11/10 00:34:19;;;;;;;11.85;10.63;;;;;;;;;;4915535;29;20517;-78
2023/11/10 00:36:45;;;;;;;11.55;10.43;;;;;;;;;;4916089;29;20088;-78
2023/11/10 00:39:11;;;;;;;13.98;11.43;;;;;;;;;;4931376;29;20054;-78
2023/11/10 00:41:37;;;;;;;12.98;11.75;;;;;;;;;;4933014;29;20032;-78
2023/11/10 00:44:03;;;;;;;15.52;11.75;;;;;;;;;;4931437;29;20051;-78
2023/11/10 00:46:29;;;;;;;13.65;11.52;;;;;;;;;;4931543;29;20040;-78
2023/11/10 00:48:55;;;;;;;10.00;8.88;;;;;;;;;;4931619;29;20445;-78
2023/11/10 00:51:21;;;;;;;10.20;7.65;;;;;;;;;;4931528;29;20079;-77
2023/11/10 00:53:47;;;;;;;10.77;8.90;;;;;;;;;;4915871;29;20455;-78
2023/11/10 00:56:13;;;;;;;9.00;7.63;;;;;;;;;;4931511;29;20502;-78
2023/11/10 00:58:39;;;;;;;9.38;7.43;;;;;;;;;;4915763;29;20039;-77
2023/11/10 01:01:07;;;;;;;13.63;6.82;;;;;;;;;;4915509;29;20035;-76
2023/11/10 01:03:33;;;;;;;7.20;6.50;;;;;;;;;;4912204;29;20058;-78
2023/11/10 01:05:59;;;;;;;11.55;6.70;;;;;;;;;;4936572;28;20515;-78
2023/11/10 01:08:25;;;;;;;8.32;7.38;;;;;;;;;;4917949;29;20036;-79
2023/11/10 01:10:51;;;;;;;7.50;6.80;;;;;;;;;;4941593;29;20059;-77
2023/11/10 01:13:17;;;;;;;7.07;6.47;;;;;;;;;;4955221;29;20047;-77
2023/11/10 01:15:43;;;;;;;7.88;7.05;;;;;;;;;;4937309;29;20818;-76
2023/11/10 01:18:09;;;;;;;7.38;6.72;;;;;;;;;;4932463;29;20031;-77
2023/11/10 01:20:35;;;;;;;9.45;7.20;;;;;;;;;;4932367;29;20195;-77
2023/11/10 01:23:02;;;;;;;8.95;7.53;;;;;;;;;;4915532;29;20054;-77
2023/11/10 01:25:30;;;;;;;6.90;6.40;;;;;;;;;;4916998;29;20676;-78
2023/11/10 01:27:56;;;;;;;8.05;6.78;;;;;;;;;;4935863;29;20036;-78
2023/11/10 01:30:22;;;;;;;7.15;6.45;;;;;;;;;;4934380;29;20043;-76
2023/11/10 01:32:48;;;;;;;7.50;6.57;;;;;;;;;;4918570;29;20064;-77
2023/11/10 01:35:14;;;;;;;6.95;6.35;;;;;;;;;;4918582;29;20601;-78
2023/11/10 01:37:41;;;;;;;7.53;6.82;;;;;;;;;;4935921;29;20043;-78
2023/11/10 01:40:08;;;;;;;7.13;6.45;;;;;;;;;;4918377;29;20035;-76
2023/11/10 01:42:34;;;;;;;7.68;6.60;;;;;;;;;;4935558;29;20027;-78
2023/11/10 01:45:00;;;;;;;10.35;6.45;;;;;;;;;;4935514;29;20066;-77
2023/11/10 01:47:26;;;;;;;8.27;7.32;;;;;;;;;;4918422;29;20053;-77
2023/11/10 01:49:52;;;;;;;6.60;5.97;;;;;;;;;;4935687;29;20044;-78
2023/11/10 01:52:18;;;;;;;8.23;7.50;;;;;;;;;;4918405;29;20064;-78
2023/11/10 01:54:44;;;;;;;8.30;7.55;;;;;;;;;;4933997;29;20103;-76
2023/11/10 01:57:10;;;;;;;8.55;7.50;;;;;;;;;;4934763;29;20043;-77
2023/11/10 01:59:36;;;;;;;8.75;7.47;;;;;;;;;;4931874;29;20534;-77
2023/11/10 02:02:05;;;;;;;9.48;6.53;;;;;;;;;;4916376;29;20106;-78
2023/11/10 02:04:35;;;;;;;8.32;7.50;;;;;;;;;;4930465;29;20126;-77
2023/11/10 02:07:02;;;;;;;8.60;7.63;;;;;;;;;;4934158;29;20035;-78
2023/11/10 02:09:28;;;;;;;9.18;8.27;;;;;;;;;;4934781;29;20091;-78
2023/11/10 02:11:53;;;;;;;8.93;8.13;;;;;;;;;;4950075;29;20039;-78
2023/11/10 02:14:20;;;;;;;8.73;7.90;;;;;;;;;;4934310;29;20063;-78
2023/11/10 02:16:46;;;;;;;14.15;10.68;;;;;;;;;;4925271;29;20463;-77
2023/11/10 02:19:16;;;;;;;9.23;8.20;;;;;;;;;;4914701;29;20028;-79
2023/11/10 02:21:44;;;;;;;12.73;9.77;;;;;;;;;;4916243;29;20028;-79
2023/11/10 02:24:12;;;;;;;10.60;9.50;;;;;;;;;;4898769;29;20447;-79
2023/11/10 02:26:39;;;;;;;14.57;10.40;;;;;;;;;;4915040;29;20507;-79
2023/11/10 02:29:04;;;;;;;14.23;10.20;;;;;;;;;;4930673;29;20042;-77
2023/11/10 02:31:32;;;;;;;13.70;10.30;;;;;;;;;;4918036;29;20071;-79
2023/11/10 02:33:58;;;;;;;13.82;11.05;;;;;;;;;;4930065;29;20039;-78
2023/11/10 02:36:24;;;;;;;13.23;10.90;;;;;;;;;;4943073;28;20043;-77
2023/11/10 02:38:50;;;;;;;12.52;9.93;;;;;;;;;;4945104;29;20157;-78
2023/11/10 02:41:16;;;;;;;10.70;8.43;;;;;;;;;;4941534;29;20070;-79
2023/11/10 02:43:42;;;;;;;11.90;10.18;;;;;;;;;;4938443;29;20051;-79
2023/11/10 02:46:08;;;;;;;10.15;8.95;;;;;;;;;;4937907;29;20028;-78
2023/11/10 02:48:34;;;;;;;10.73;8.73;;;;;;;;;;4937477;29;20051;-79
2023/11/10 02:51:00;;;;;;;12.10;10.00;;;;;;;;;;4935865;29;20453;-78
2023/11/10 02:53:26;;;;;;;12.77;9.27;;;;;;;;;;4935332;29;20031;-79
2023/11/10 02:55:53;;;;;;;16.10;10.07;;;;;;;;;;4917777;29;20194;-77
2023/11/10 02:58:19;;;;;;;13.73;10.00;;;;;;;;;;4934052;29;20046;-79
2023/11/10 03:00:45;;;;;;;11.27;9.45;;;;;;;;;;4934472;29;20406;-79
2023/11/10 03:03:11;;;;;;;14.90;9.93;;;;;;;;;;4932830;29;20045;-79
2023/11/10 03:05:37;;;;;;;10.57;9.50;;;;;;;;;;4933182;29;20062;-80
2023/11/10 03:08:03;;;;;;;10.65;8.60;;;;;;;;;;4934364;29;20039;-80
2023/11/10 03:10:30;;;;;;;9.32;6.68;;;;;;;;;;4932395;29;20047;-78
2023/11/10 03:12:56;;;;;;;14.13;10.25;;;;;;;;;;4933148;29;20039;-79
2023/11/10 03:15:22;;;;;;;7.72;6.95;;;;;;;;;;4932747;29;20046;-78
2023/11/10 03:17:48;;;;;;;9.82;8.82;;;;;;;;;;4933365;29;20147;-80
2023/11/10 03:20:15;;;;;;;13.10;9.50;;;;;;;;;;4933438;29;20032;-77
2023/11/10 03:22:42;;;;;;;11.30;8.98;;;;;;;;;;4936447;29;20066;-77
2023/11/10 03:25:08;;;;;;;9.43;8.43;;;;;;;;;;4918175;29;20062;-78
2023/11/10 03:27:35;;;;;;;7.97;7.18;;;;;;;;;;4934132;29;20063;-77
2023/11/10 03:30:02;;;;;;;8.52;7.57;;;;;;;;;;4930498;29;20107;-78
2023/11/10 03:32:31;;;;;;;7.40;6.70;;;;;;;;;;4905506;29;20478;-78
2023/11/10 03:34:57;;;;;;;5.95;5.38;;;;;;;;;;4919460;29;20352;-79
2023/11/10 03:37:23;;;;;;;10.80;8.30;;;;;;;;;;4916877;29;20036;-79
2023/11/10 03:39:49;;;;;;;5.03;4.70;;;;;;;;;;4922374;29;20103;-78
2023/11/10 03:42:15;;;;;;;9.65;8.45;;;;;;;;;;4904588;29;20091;-79
2023/11/10 03:44:41;;;;;;;12.35;9.20;;;;;;;;;;4920740;29;20040;-79
2023/11/10 03:47:07;;;;;;;8.32;7.53;;;;;;;;;;4917914;29;20044;-79
2023/11/10 03:49:34;;;;;;;7.88;7.07;;;;;;;;;;4933969;29;20063;-77
2023/11/10 03:52:00;;;;;;;11.30;6.57;;;;;;;;;;4922516;29;20112;-79
2023/11/10 03:54:26;;;;;;;8.10;7.40;;;;;;;;;;4926037;29;20043;-77
2023/11/10 03:56:53;;;;;;;6.82;6.22;;;;;;;;;;4926186;29;20126;-77
2023/11/10 03:59:19;;;;;;;8.73;7.38;;;;;;;;;;4924809;29;20043;-76
2023/11/10 04:01:45;;;;;;;7.22;6.60;;;;;;;;;;4934562;29;20107;-77
2023/11/10 04:04:11;;;;;;;8.20;7.35;;;;;;;;;;4933876;29;20111;-77
2023/11/10 04:06:37;;;;;;;11.88;6.45;;;;;;;;;;4945717;29;20550;-78
2023/11/10 04:09:03;;;;;;;11.88;6.72;;;;;;;;;;4935533;29;20074;-78
2023/11/10 04:11:29;;;;;;;6.65;5.03;;;;;;;;;;4915903;29;20070;-78
2023/11/10 04:13:56;;;;;;;6.90;6.30;;;;;;;;;;4939638;29;20544;-78
2023/11/10 04:16:22;;;;;;;7.18;6.25;;;;;;;;;;4930029;29;20040;-77
2023/11/10 04:18:52;;;;;;;7.70;6.85;;;;;;;;;;4933434;29;20066;-78
2023/11/10 04:21:19;;;;;;;6.20;5.70;;;;;;;;;;4932490;29;20052;-79
2023/11/10 04:23:45;;;;;;;2.97;2.80;;;;;;;;;;4947998;28;20570;-78
2023/11/10 04:26:12;;;;;;;10.43;5.97;;;;;;;;;;4929360;29;20054;-79
2023/11/10 04:28:39;;;;;;;28.90;15.52;;;;;;;;;;4926012;29;20032;-79
2023/11/10 04:31:05;;;;;;;6.28;4.68;;;;;;;;;;4923737;29;20119;-78
2023/11/10 04:33:31;;;;;;;6.43;5.90;;;;;;;;;;4924764;29;20028;-79
2023/11/10 04:35:57;;;;;;;5.03;4.60;;;;;;;;;;4913716;29;20047;-79
2023/11/10 04:38:23;;;;;;;6.15;5.65;;;;;;;;;;4931187;29;20032;-79
2023/11/10 04:40:49;;;;;;;5.45;5.00;;;;;;;;;;4933153;29;20058;-80
2023/11/10 04:43:15;;;;;;;5.07;3.78;;;;;;;;;;4930935;29;20042;-79
2023/11/10 04:45:42;;;;;;;5.47;5.03;;;;;;;;;;4930967;29;20040;-79
2023/11/10 04:48:08;;;;;;;6.07;5.57;;;;;;;;;;4916116;29;20047;-80
2023/11/10 04:50:34;;;;;;;5.68;5.28;;;;;;;;;;4933578;29;20131;-80
2023/11/10 04:53:00;;;;;;;3.72;3.25;;;;;;;;;;4939789;29;20035;-79
2023/11/10 04:55:26;;;;;;;4.47;4.15;;;;;;;;;;4944211;29;20043;-80
2023/11/10 04:57:52;;;;;;;5.57;5.07;;;;;;;;;;4942657;29;20059;-80
2023/11/10 05:00:23;;;;;;;5.22;4.72;;;;;;;;;;4946065;29;20566;-79
2023/11/10 05:02:50;;;;;;;5.60;5.20;;;;;;;;;;4931423;29;20048;-80
2023/11/10 05:05:18;;;;;;;5.75;5.20;;;;;;;;;;4947652;29;20039;-80
2023/11/10 05:07:44;;;;;;;6.63;6.03;;;;;;;;;;4946954;29;20023;-79
2023/11/10 05:10:10;;;;;;;7.03;5.38;;;;;;;;;;4925249;29;20046;-80
2023/11/10 05:12:36;;;;;;;6.03;5.32;;;;;;;;;;4935824;29;20042;-79
2023/11/10 05:15:05;;;;;;;5.90;5.40;;;;;;;;;;4935713;29;20044;-79
2023/11/10 05:17:35;;;;;;;4.80;4.43;;;;;;;;;;4936372;29;20039;-80
2023/11/10 05:20:01;;;;;;;5.63;5.22;;;;;;;;;;4934933;29;20039;-79
2023/11/10 05:22:32;;;;;;;5.35;4.93;;;;;;;;;;4935084;29;20414;-79
2023/11/10 05:24:58;;;;;;;;;;;;;;;;;;4919392;29;20039;-80
2023/11/10 05:27:24;;;;;;;7.47;6.30;;;;;;;;;;4936562;29;20313;-78
2023/11/10 05:29:51;;;;;;;7.55;5.85;;;;;;;;;;4919428;29;20040;-80
2023/11/10 05:32:17;;;;;;;5.82;5.40;;;;;;;;;;4935069;29;20063;-80
2023/11/10 05:34:44;;;;;;;4.50;4.10;;;;;;;;;;4935820;29;20437;-79
2023/11/10 05:37:10;;;;;;;6.70;6.10;;;;;;;;;;4937243;29;20187;-78
2023/11/10 05:39:36;;;;;;;3.78;3.55;;;;;;;;;;4934503;29;20593;-79
2023/11/10 05:42:02;;;;;;;6.43;5.88;;;;;;;;;;4932698;29;20040;-77
2023/11/10 05:44:28;;;;;;;5.93;5.45;;;;;;;;;;4933490;29;20171;-78
2023/11/10 05:46:55;;;;;;;5.43;4.95;;;;;;;;;;4918461;29;20119;-76
2023/11/10 05:49:21;;;;;;;7.55;4.97;;;;;;;;;;4916392;29;20439;-77
2023/11/10 05:51:48;;;;;;;4.43;4.13;;;;;;;;;;4915717;29;20196;-76
2023/11/10 05:54:15;;;;;;;6.80;4.82;;;;;;;;;;4916266;29;20036;-77
2023/11/10 05:56:42;;;;;;;8.02;5.47;;;;;;;;;;4914990;29;20067;-77
2023/11/10 05:59:08;;;;;;;2.45;2.35;;;;;;;;;;4925031;29;20122;-76
2023/11/10 06:01:34;;;;;;;9.38;3.58;;;;;;;;;;4933735;29;20561;-77
2023/11/10 06:04:00;;;;;;;3.33;3.10;;;;;;;;;;4917362;29;20090;-79
2023/11/10 06:06:27;;;;;;;9.30;4.90;;;;;;;;;;4934546;29;20038;-77
2023/11/10 06:08:54;;;;;;;3.95;3.55;;;;;;;;;;4933806;29;20036;-77
2023/11/10 06:11:20;;;;;;;10.38;4.25;;;;;;;;;;4934069;29;20039;-79
2023/11/10 06:13:48;;;;;;;7.30;4.63;;;;;;;;;;4935893;29;20046;-78
2023/11/10 06:16:14;;;;;;;5.53;4.47;;;;;;;;;;4934528;29;20031;-79
2023/11/10 06:18:41;;;;;;;5.20;4.70;;;;;;;;;;4932203;29;20032;-79
2023/11/10 06:21:07;;;;;;;4.88;4.25;;;;;;;;;;4940610;29;20064;-81
2023/11/10 06:23:34;;;;;;;2.92;2.28;;;;;;;;;;4945206;29;20035;-82
2023/11/10 06:26:00;;;;;;;5.30;4.72;;;;;;;;;;4930944;29;20043;-80
2023/11/10 06:28:26;;;;;;;4.57;4.22;;;;;;;;;;4930508;29;20035;-81
2023/11/10 06:30:52;;;;;;;4.88;4.57;;;;;;;;;;4928409;29;20040;-81
2023/11/10 06:33:19;;;;;;;3.72;3.42;;;;;;;;;;4922981;29;20120;-81
2023/11/10 06:35:44;;;;;;;4.50;4.20;;;;;;;;;;4929094;29;20032;-81
2023/11/10 06:38:10;;;;;;;6.15;4.53;;;;;;;;;;4926658;29;20040;-84
2023/11/10 06:40:37;;;;;;;4.55;4.20;;;;;;;;;;4920101;29;20642;-81
2023/11/10 06:43:03;;;;;;;4.63;4.22;;;;;;;;;;4919638;29;20067;-80
2023/11/10 06:45:29;;;;;;;5.57;4.35;;;;;;;;;;4921662;29;20040;-81
2023/11/10 06:47:58;;;;;;;4.13;3.83;;;;;;;;;;4920039;29;20047;-81
2023/11/10 06:50:24;;;;;;;3.67;3.38;;;;;;;;;;4916471;29;20598;-78
2023/11/10 06:52:50;;;;;;;3.50;3.20;;;;;;;;;;4934341;29;20503;-77
2023/11/10 06:55:16;;;;;;;4.95;4.45;;;;;;;;;;4968596;29;20039;-80
2023/11/10 06:57:42;;;;;;;3.00;2.70;;;;;;;;;;4959763;29;20107;-81
2023/11/10 07:00:10;;;;;;;4.10;3.80;;;;;;;;;;4969559;29;20074;-81
2023/11/10 07:02:36;;;;;;;4.07;3.88;;;;;;;;;;4964964;29;20079;-81
2023/11/10 07:05:03;;;;;;;7.38;6.78;;;;;;;;;;4959928;29;20042;-80
2023/11/10 07:07:30;;;;;;;4.00;3.72;;;;;;;;;;4956565;29;20050;-81
2023/11/10 07:09:59;;;;;;;5.85;4.57;;;;;;;;;;4960562;29;20514;-80
2023/11/10 07:12:25;;;;;;;5.95;5.35;;;;;;;;;;4960757;29;20053;-80
2023/11/10 07:14:52;;;;;;;10.50;4.82;;;;;;;;;;4965558;29;20176;-83
2023/11/10 07:17:18;;;;;;;6.15;5.55;;;;;;;;;;4962125;28;20046;-80
2023/11/10 07:19:44;;;;;;;7.78;4.28;;;;;;;;;;4942617;28;20043;-80
2023/11/10 07:22:11;;;;;;;4.75;4.18;;;;;;;;;;4949812;28;20040;-81
2023/11/10 07:24:37;;;;;;;6.97;3.88;;;;;;;;;;4963283;29;20031;-80
2023/11/10 07:27:06;;;;;;;7.55;4.25;;;;;;;;;;4949426;29;20045;-80
2023/11/10 07:29:34;;;;;;;11.55;5.25;;;;;;;;;;4953345;29;20548;-81
2023/11/10 07:32:01;;;;;;;5.03;4.40;;;;;;;;;;4948369;29;20056;-81
2023/11/10 07:34:27;;;;;;;7.50;4.28;;;;;;;;;;4939994;29;20349;-80
2023/11/10 07:36:54;;;;;;;4.50;4.10;;;;;;;;;;4936445;29;20083;-81
2023/11/10 07:39:21;;;;;;;6.38;5.07;;;;;;;;;;4933802;29;20036;-77
2023/11/10 07:41:47;;;;;;;5.90;4.95;;;;;;;;;;4948974;29;20545;-78
2023/11/10 07:44:13;;;;;;;5.35;4.90;;;;;;;;;;4935592;29;20027;-81
2023/11/10 07:46:39;;;;;;;5.97;5.18;;;;;;;;;;4934610;29;20457;-78
2023/11/10 07:49:05;;;;;;;4.78;4.47;;;;;;;;;;4939305;29;20078;-78
2023/11/10 07:51:31;;;;;;;8.27;4.20;;;;;;;;;;4918769;29;20048;-81
2023/11/10 07:53:57;;;;;;;4.78;4.47;;;;;;;;;;4935556;29;20027;-81
2023/11/10 07:56:23;;;;;;;5.85;5.18;;;;;;;;;;4950022;29;20458;-81
2023/11/10 07:58:49;;;;;;;4.20;3.90;;;;;;;;;;4948965;29;20044;-80
2023/11/10 08:01:15;;;;;;;5.25;4.78;;;;;;;;;;4941498;29;20035;-80
2023/11/10 08:03:42;;;;;;;6.22;5.00;;;;;;;;;;4938913;29;20410;-83
2023/11/10 08:06:09;;;;;;;5.70;4.95;;;;;;;;;;4948664;29;20067;-82
2023/11/10 08:08:36;;;;;;;8.18;5.15;;;;;;;;;;4934692;29;20087;-78
2023/11/10 08:11:02;;;;;;;7.07;5.40;;;;;;;;;;4915747;29;20049;-78
2023/11/10 08:13:28;;;;;;;4.35;4.05;;;;;;;;;;4933847;29;20051;-78
2023/11/10 08:15:54;;;;;;;6.32;4.93;;;;;;;;;;4933692;29;20087;-77
2023/11/10 08:18:21;;;;;;;7.25;5.30;;;;;;;;;;4934133;29;20050;-79
2023/11/10 08:20:47;;;;;;;5.72;5.22;;;;;;;;;;4932300;29;20067;-75
2023/11/10 08:23:16;;;;;;;4.40;3.75;;;;;;;;;;4932300;29;20099;-78
2023/11/10 08:25:42;;;;;;;9.63;5.90;;;;;;;;;;4932289;29;20514;-77
2023/11/10 08:28:08;;;;;;;6.57;5.97;;;;;;;;;;4931149;29;20039;-76
2023/11/10 08:30:35;;;;;;;4.55;4.25;;;;;;;;;;4931904;29;20059;-77
2023/11/10 08:33:01;;;;;;;6.75;5.28;;;;;;;;;;4931800;29;20192;-79
2023/11/10 08:35:27;;;;;;;6.07;4.75;;;;;;;;;;4934380;29;20044;-77
2023/11/10 08:37:53;;;;;;;6.57;6.05;;;;;;;;;;4937004;29;20043;-78
2023/11/10 08:40:19;;;;;;;10.32;5.40;;;;;;;;;;4935876;29;20047;-77
2023/11/10 08:42:45;;;;;;;6.25;5.63;;;;;;;;;;4935365;29;20027;-76
2023/11/10 08:45:11;;;;;;;5.88;5.38;;;;;;;;;;4935896;29;20071;-78
2023/11/10 08:47:40;;;;;;;4.97;4.55;;;;;;;;;;4952089;28;20126;-80
2023/11/10 08:50:10;;;;;;;5.43;5.03;;;;;;;;;;4936848;29;20071;-79
2023/11/10 08:52:41;;;;;;;4.57;4.25;;;;;;;;;;4938106;29;20043;-80
2023/11/10 08:55:10;;;;;;;6.70;4.82;;;;;;;;;;4955254;28;20090;-81
2023/11/10 08:58:02;;;;;;;4.50;4.20;;;;;;;;;;4956852;29;20043;-79
2023/11/10 09:00:28;;;;;;;6.18;5.03;;;;;;;;;;4916219;29;20055;-72
2023/11/10 09:02:55;;;;;;;5.93;5.45;;;;;;;;;;4911984;29;20151;-73
2023/11/10 09:05:22;;;;;;;5.57;5.18;;;;;;;;;;4914572;29;20043;-72
2023/11/10 09:07:48;;;;;;;6.15;5.63;;;;;;;;;;4911718;29;20060;-72
2023/11/10 09:10:14;;;;;;;12.70;5.82;;;;;;;;;;4907405;29;20044;-72
2023/11/10 09:12:43;;;;;;;11.93;5.15;;;;;;;;;;4906160;29;20036;-72
2023/11/10 09:15:14;;;;;;;16.98;5.82;;;;;;;;;;4908660;29;20055;-72
2023/11/10 09:17:40;;;;;;;6.38;5.78;;;;;;;;;;4909918;29;20443;-71
2023/11/10 09:20:07;;;;;;;8.20;5.97;;;;;;;;;;4913426;29;20073;-71
2023/11/10 09:22:35;;;;;;;6.57;5.93;;;;;;;;;;4909987;29;20033;-72
2023/11/10 09:25:02;;;;;;;6.80;5.68;;;;;;;;;;4915887;29;20144;-71
2023/11/10 09:27:29;;;;;;;7.80;6.63;;;;;;;;;;4916013;29;20043;-72
2023/11/10 09:29:55;;;;;;;6.65;6.05;;;;;;;;;;4915878;29;20095;-72
2023/11/10 09:32:21;;;;;;;7.00;6.20;;;;;;;;;;4914781;29;20075;-71
2023/11/10 09:34:47;;;;;;;5.93;5.28;;;;;;;;;;4915519;29;20455;-73
2023/11/10 09:37:14;;;;;;;8.40;5.90;;;;;;;;;;4914059;29;20051;-72
2023/11/10 09:39:42;;;;;;;6.20;5.80;;;;;;;;;;4914172;29;20036;-71
2023/11/10 09:42:08;;;;;;;6.80;6.30;;;;;;;;;;4907291;29;20024;-72
2023/11/10 09:44:36;;;;;;;6.45;6.05;;;;;;;;;;4906097;29;20124;-73
2023/11/10 09:47:02;;;;;;;7.68;6.47;;;;;;;;;;4904302;29;20037;-72
2023/11/10 09:49:28;;;;;;;5.57;5.07;;;;;;;;;;4914678;29;20095;-72
2023/11/10 09:51:55;;;;;;;7.63;5.57;;;;;;;;;;4928808;29;20047;-71
2023/11/10 09:54:21;;;;;;;6.43;5.88;;;;;;;;;;4959068;29;20187;-72
2023/11/10 09:56:47;;;;;;;6.80;6.10;;;;;;;;;;4934465;29;20043;-72
2023/11/10 09:59:14;;;;;;;6.55;5.97;;;;;;;;;;4940955;29;20079;-72
2023/11/10 10:01:40;;;;;;;7.53;5.88;;;;;;;;;;4934878;29;20046;-72
2023/11/10 10:04:06;;;;;;;6.80;6.13;;;;;;;;;;4932722;29;20040;-73
2023/11/10 10:06:32;;;;;;;6.00;5.50;;;;;;;;;;4945697;29;20516;-73
2023/11/10 10:08:58;;;;;;;7.50;5.28;;;;;;;;;;4922897;29;20059;-73
2023/11/10 10:11:24;;;;;;;6.05;5.57;;;;;;;;;;4936126;29;20078;-73
2023/11/10 10:13:52;;;;;;;6.05;5.50;;;;;;;;;;4924199;29;20102;-73
2023/11/10 10:16:19;;;;;;;6.28;5.57;;;;;;;;;;4923320;29;20036;-73
2023/11/10 10:18:45;;;;;;;6.03;5.57;;;;;;;;;;4925900;29;20067;-73
2023/11/10 10:21:11;;;;;;;5.65;4.72;;;;;;;;;;4926876;29;20090;-73
2023/11/10 10:23:37;;;;;;;5.15;4.50;;;;;;;;;;4933815;29;20091;-72
2023/11/10 10:26:09;;;;;;;6.60;5.32;;;;;;;;;;4933881;29;20576;-72
2023/11/10 10:28:35;;;;;;;4.50;4.18;;;;;;;;;;4933835;29;20047;-72
2023/11/10 10:31:01;;;;;;;6.03;5.30;;;;;;;;;;4933896;29;20051;-72
2023/11/10 10:33:27;;;;;;;6.43;5.93;;;;;;;;;;4934051;29;20046;-71
2023/11/10 10:35:53;;;;;;;6.93;5.28;;;;;;;;;;4947543;29;20039;-72
2023/11/10 10:38:22;;;;;;;5.38;4.95;;;;;;;;;;4931429;29;20031;-72
2023/11/10 10:40:48;;;;;;;7.43;5.85;;;;;;;;;;4926684;29;20418;-72
2023/11/10 10:43:15;;;;;;;6.85;5.63;;;;;;;;;;4929813;29;20837;-72
2023/11/10 10:45:41;;;;;;;5.88;5.38;;;;;;;;;;4915075;29;20091;-72
2023/11/10 10:48:08;;;;;;;6.15;5.65;;;;;;;;;;4929112;29;20426;-72
2023/11/10 10:50:37;;;;;;;7.68;6.78;;;;;;;;;;4929191;29;20572;-72
2023/11/10 10:53:03;;;;;;;9.75;7.47;;;;;;;;;;4939178;28;20035;-72
2023/11/10 10:55:29;;;;;;;7.70;6.30;;;;;;;;;;4952709;28;20496;-71
2023/11/10 10:57:55;;;;;;;11.27;7.07;;;;;;;;;;4951181;28;20149;-72
2023/11/10 11:00:23;;;;;;;9.50;7.25;;;;;;;;;;4943662;28;20047;-72
2023/11/10 11:02:53;;;;;;;8.18;7.10;;;;;;;;;;4947817;29;20094;-71
2023/11/10 11:05:31;;;;;;;19.13;8.65;;;;;;;;;;4931880;28;20073;-77
2023/11/10 11:08:00;;;;;;;10.00;7.55;;;;;;;;;;4915262;29;20035;-76
2023/11/10 11:10:30;;;;;;;9.77;8.60;;;;;;;;;;4949678;29;20059;-77
2023/11/10 11:13:17;;;;;;;11.25;8.05;;;;;;;;;;4936131;29;20046;-76
2023/11/10 11:15:42;;;;;;;9.15;7.70;;;;;;;;;;4934976;29;20051;-78
2023/11/10 11:18:13;;;;;;;10.45;7.95;;;;;;;;;;4934807;29;20102;-75
2023/11/10 11:20:39;;;;;;;8.77;7.60;;;;;;;;;;4933124;29;20079;-76
2023/11/10 11:23:07;;;;;;;10.98;7.85;;;;;;;;;;4933930;29;20035;-76
2023/11/10 11:25:33;;;;;;;14.10;9.27;;;;;;;;;;4932985;29;20071;-77
2023/11/10 11:27:59;;;;;;;11.73;9.75;;;;;;;;;;4932443;29;20039;-77
2023/11/10 11:30:38;;;;;;;13.07;10.00;;;;;;;;;;4932147;29;20375;-76
2023/11/10 11:33:05;;;;;;;11.50;10.43;;;;;;;;;;4931050;29;20031;-76
2023/11/10 11:35:47;;;;;;;19.67;8.43;;;;;;;;;;4948146;29;20039;-76
2023/11/10 11:38:30;;;;;;;11.55;8.10;;;;;;;;;;4933938;29;20139;-77
2023/11/10 11:40:59;;;;;;;10.25;8.95;;;;;;;;;;4933534;29;20032;-77
2023/11/10 11:43:25;;;;;;;10.77;9.35;;;;;;;;;;4948521;29;20050;-77
2023/11/10 11:45:55;;;;;;;8.98;8.13;;;;;;;;;;4933762;29;20110;-76
2023/11/10 11:48:21;;;;;;;8.45;7.65;;;;;;;;;;4933525;29;20044;-77
2023/11/10 11:50:53;;;;;;;9.32;7.55;;;;;;;;;;4933692;29;20474;-76
2023/11/10 11:53:19;;;;;;;8.25;7.45;;;;;;;;;;4933324;29;20067;-76
2023/11/10 11:55:50;;;;;;;11.27;7.88;;;;;;;;;;4933828;29;20063;-77
2023/11/10 11:58:16;;;;;;;17.83;8.05;;;;;;;;;;4934051;29;20060;-76
2023/11/10 12:00:42;;;;;;;11.60;9.45;;;;;;;;;;4953037;28;20151;-76
2023/11/10 12:03:08;;;;;;;11.32;8.65;;;;;;;;;;4946270;29;20036;-75
2023/11/10 12:05:34;;;;;;;11.05;8.15;;;;;;;;;;4944519;29;20497;-76
2023/11/10 12:08:01;;;;;;;14.43;8.38;;;;;;;;;;4939228;29;20027;-76
2023/11/10 12:10:28;;;;;;;9.38;8.48;;;;;;;;;;4934064;29;20051;-75
2023/11/10 12:12:55;;;;;;;12.00;8.32;;;;;;;;;;4933375;29;20114;-75
2023/11/10 12:15:22;;;;;;;16.77;9.18;;;;;;;;;;4933560;29;20032;-76
2023/11/10 12:17:48;;;;;;;11.55;8.65;;;;;;;;;;4931697;29;20038;-75
2023/11/10 12:20:14;;;;;;;11.95;7.63;;;;;;;;;;4933047;29;20043;-76
2023/11/10 12:22:59;;;;;;;9.18;7.57;;;;;;;;;;4932991;29;20384;-76
2023/11/10 12:25:26;;;;;;;16.98;8.82;;;;;;;;;;4933057;29;20031;-76
2023/11/10 12:27:56;;;;;;;10.43;7.90;;;;;;;;;;4931876;29;20067;-76
2023/11/10 12:30:24;;;;;;;10.07;7.70;;;;;;;;;;4931884;29;20107;-76
2023/11/10 12:32:52;;;;;;;9.55;8.65;;;;;;;;;;4931556;29;20078;-76
2023/11/10 12:35:21;;;;;;;9.25;8.32;;;;;;;;;;4931395;29;20039;-75
2023/11/10 12:37:47;;;;;;;13.40;10.13;;;;;;;;;;4931942;29;20036;-75
2023/11/10 12:40:17;;;;;;;20.92;10.73;;;;;;;;;;4933895;28;20549;-76
2023/11/10 12:42:45;;;;;;;16.65;10.95;;;;;;;;;;4936038;29;20046;-76
2023/11/10 12:45:11;;;;;;;13.50;10.02;;;;;;;;;;4949943;29;20055;-76
2023/11/10 12:47:42;;;;;;;21.95;9.55;;;;;;;;;;4947896;29;20660;-76
2023/11/10 12:50:16;;;;;;;13.02;9.88;;;;;;;;;;4931916;29;20066;-76
2023/11/10 12:52:42;;;;;;;18.08;9.75;;;;;;;;;;4931969;29;20064;-76
2023/11/10 12:55:09;;;;;;;16.63;9.10;;;;;;;;;;4932021;29;20099;-76
2023/11/10 12:57:35;;;;;;;12.60;9.18;;;;;;;;;;4932985;29;20039;-75
2023/11/10 13:00:12;;;;;;;18.00;8.63;;;;;;;;;;4932436;29;20079;-75
2023/11/10 13:02:42;;;;;;;14.80;8.88;;;;;;;;;;4932604;29;20047;-76
2023/11/10 13:05:10;;;;;;;14.40;9.40;;;;;;;;;;4931202;29;20417;-76
2023/11/10 13:07:36;;;;;;;11.07;8.48;;;;;;;;;;4900430;29;20043;-76
2023/11/10 13:10:06;;;;;;;13.48;9.13;;;;;;;;;;4932804;29;20119;-76
2023/11/10 13:12:33;;;;;;;14.43;10.23;;;;;;;;;;4932780;29;20444;-75
2023/11/10 13:14:59;;;;;;;16.58;10.02;;;;;;;;;;4932203;29;20058;-75
2023/11/10 13:17:26;;;;;;;9.25;7.68;;;;;;;;;;4932573;29;20075;-75
2023/11/10 13:19:52;;;;;;;13.95;11.02;;;;;;;;;;4932731;29;20042;-76
2023/11/10 13:22:20;;;;;;;14.80;11.43;;;;;;;;;;4936367;29;20122;-77
2023/11/10 13:24:46;;;;;;;22.40;13.13;;;;;;;;;;4935791;29;20461;-75
2023/11/10 13:27:12;;;;;;;16.92;11.85;;;;;;;;;;4935019;29;20342;-75
2023/11/10 13:29:38;;;;;;;20.20;12.95;;;;;;;;;;4934657;29;20063;-75
2023/11/10 13:32:06;;;;;;;18.98;12.48;;;;;;;;;;4935838;29;20086;-75
2023/11/10 13:34:32;;;;;;;15.13;8.77;;;;;;;;;;4934564;29;20070;-76
2023/11/10 13:37:01;;;;;;;16.15;10.23;;;;;;;;;;4935706;29;20394;-76
2023/11/10 13:39:27;;;;;;;17.23;10.50;;;;;;;;;;4935923;29;20069;-75
2023/11/10 13:41:53;;;;;;;13.57;9.07;;;;;;;;;;4935445;29;20035;-76
2023/11/10 13:44:19;;;;;;;29.85;12.48;;;;;;;;;;4950532;29;20040;-75
2023/11/10 13:46:45;;;;;;;18.45;12.05;;;;;;;;;;4934654;29;20055;-75
2023/11/10 13:49:12;;;;;;;18.90;11.48;;;;;;;;;;4935564;29;20128;-75
2023/11/10 13:51:37;;;;;;;17.25;9.73;;;;;;;;;;4935696;29;20418;-75
2023/11/10 13:54:04;;;;;;;14.40;11.27;;;;;;;;;;4934078;29;20036;-76
2023/11/10 13:56:30;;;;;;;18.02;10.38;;;;;;;;;;4935526;28;20047;-75
2023/11/10 13:58:57;;;;;;;16.13;10.55;;;;;;;;;;4934052;29;20056;-76
2023/11/10 14:01:24;;;;;;;18.45;11.15;;;;;;;;;;4935592;29;20130;-75
2023/11/10 14:03:51;;;;;;;18.42;10.60;;;;;;;;;;4935361;29;20028;-75
2023/11/10 14:06:17;;;;;;;17.25;11.35;;;;;;;;;;4935728;29;20051;-75
2023/11/10 14:08:43;;;;;;;8.25;7.25;;;;;;;;;;4933881;29;20032;-75
2023/11/10 14:11:09;;;;;;;13.57;9.00;;;;;;;;;;4950069;29;20376;-75
2023/11/10 14:13:35;;;;;;;12.55;8.40;;;;;;;;;;4935091;29;20510;-75
2023/11/10 14:16:02;;;;;;;11.27;8.02;;;;;;;;;;4934860;29;20075;-75
2023/11/10 14:18:28;;;;;;;11.82;8.77;;;;;;;;;;4935059;28;20459;-75
2023/11/10 14:20:55;;;;;;;11.98;9.25;;;;;;;;;;4934024;29;20043;-75
2023/11/10 14:23:21;;;;;;;16.83;8.88;;;;;;;;;;4950372;29;20099;-76
2023/11/10 14:25:47;;;;;;;14.18;7.50;;;;;;;;;;4933906;29;20040;-75
2023/11/10 14:28:13;;;;;;;13.38;9.05;;;;;;;;;;4935228;29;20079;-77
2023/11/10 14:30:39;;;;;;;14.57;9.85;;;;;;;;;;4935290;29;20193;-75
2023/11/10 14:33:05;;;;;;;11.30;8.15;;;;;;;;;;4934097;29;20032;-76
2023/11/10 14:35:31;;;;;;;20.45;9.63;;;;;;;;;;4931795;29;20047;-78
2023/11/10 14:37:58;;;;;;;13.57;8.05;;;;;;;;;;4933287;29;20119;-76